Manila Express — VRCX7 — position and weather

sailwx.info

Track history (hours):
 
Tides and Currents Weather Stations Pressure Air Temp Water Temp Dewpoint Dewpoint Depression Visibility Wind Speed Wind Dir Waves Ship Positions

Manila Express

Last reported at 2018-Apr-20 23:08 UTC. Time now 2018-Apr-22 22:07 UTC.
Position N 01°14' E 104°03'.

Length 260 m; draft 10.2 m.

Type: Cargo ship. MMSI: 477830800.

Date/timePositionNaut miles runAvg speedWind from/ knotsBaromVisibWave heightAir tempDewpointWater temp
2018-Apr-20 23:08N 01°14' E 104°03'214.4
2018-Apr-20 22:59N 01°14' E 104°00'713.9
2018-Apr-20 22:30N 01°12' E 103°54'814.9
2018-Apr-20 22:00N 01°09' E 103°47'714.2
2018-Apr-20 21:30N 01°04' E 103°42'713.0
2018-Apr-20 21:00N 01°05' E 103°35'613.1
2018-Apr-20 20:30N 01°09' E 103°31'612.0
2018-Apr-20 20:00N 01°15' E 103°32'611.5
2018-Apr-20 19:30N 01°21' E 103°33'1 1.4
2018-Apr-20 18:59N 01°22' E 103°33'0 0.0
2018-Apr-20 18:26N 01°22' E 103°33'0 0.0
2018-Apr-20 17:56N 01°22' E 103°33'0 0.0
2018-Apr-20 17:29N 01°22' E 103°33'0 0.0
2018-Apr-20 16:53N 01°22' E 103°33'0 0.0
2018-Apr-20 15:41N 01°22' E 103°33'0 0.0
2018-Apr-20 15:20N 01°22' E 103°33'0 0.0
2018-Apr-20 14:59N 01°22' E 103°33'0 0.0
2018-Apr-20 14:26N 01°22' E 103°33'0 0.0
2018-Apr-20 13:59N 01°22' E 103°33'0 0.0
2018-Apr-20 12:50N 01°22' E 103°33'0 0.0
2018-Apr-20 11:14N 01°22' E 103°33'0 0.2
2018-Apr-20 10:56N 01°22' E 103°33'0 0.0
2018-Apr-20 10:26N 01°22' E 103°33'0 0.0
2018-Apr-20 07:31N 01°22' E 103°33'0 0.0
2018-Apr-20 07:01N 01°22' E 103°33'0 0.0
2018-Apr-20 06:46N 01°22' E 103°33'0 0.0
2018-Apr-20 06:13N 01°22' E 103°33'0 0.0
2018-Apr-20 05:58N 01°22' E 103°33'0 0.1
2018-Apr-20 05:22N 01°22' E 103°33'0 0.1
2018-Apr-20 04:55N 01°22' E 103°33'0 0.0
2018-Apr-20 04:25N 01°22' E 103°33'0 0.0
2018-Apr-20 03:55N 01°22' E 103°33'0 0.0
2018-Apr-20 03:28N 01°22' E 103°33'0 0.0
2018-Apr-20 02:58N 01°22' E 103°33'0 0.0
2018-Apr-20 02:19N 01°22' E 103°33'0 0.0
2018-Apr-20 01:58N 01°22' E 103°33'0 0.0
2018-Apr-20 01:28N 01°22' E 103°33'0 0.0
2018-Apr-20 00:40N 01°22' E 103°33'0 0.1
2018-Apr-20 00:13N 01°22' E 103°33'0 0.2
2018-Apr-19 23:58N 01°22' E 103°33'0 0.0
2018-Apr-19 23:29N 01°22' E 103°33'5 3.5
2018-Apr-19 22:10N 01°17' E 103°33'213.7
2018-Apr-19 22:00N 01°15' E 103°32'3 6.3
2018-Apr-19 21:30N 01°15' E 103°29'1 1.9
2018-Apr-19 21:00N 01°15' E 103°28'1 1.7
2018-Apr-19 20:28N 01°14' E 103°29'4 7.9
2018-Apr-19 19:59N 01°13' E 103°32'510.8
2018-Apr-19 19:29N 01°12' E 103°37'3 6.5
2018-Apr-19 19:00N 01°13' E 103°40'611.3
2018-Apr-19 18:30N 01°16' E 103°45'1 2.7
2018-Apr-19 17:58N 01°17' E 103°46'0 0.0
2018-Apr-19 17:25N 01°17' E 103°46'0 0.0
2018-Apr-19 16:58N 01°17' E 103°46'0 0.0
2018-Apr-19 16:28N 01°17' E 103°46'0 0.0
2018-Apr-19 15:58N 01°17' E 103°46'0 0.0
2018-Apr-19 15:28N 01°17' E 103°46'0 0.0
2018-Apr-19 14:58N 01°17' E 103°46'0 0.0
2018-Apr-19 14:28N 01°17' E 103°46'0 0.0
2018-Apr-19 13:58N 01°17' E 103°46'0 0.0
2018-Apr-19 13:28N 01°17' E 103°46'0 0.0
2018-Apr-19 12:58N 01°17' E 103°46'0 0.0
2018-Apr-19 12:28N 01°17' E 103°46'0 0.0
2018-Apr-19 11:58N 01°17' E 103°46'0 0.0
2018-Apr-19 11:28N 01°17' E 103°46'0 0.0
2018-Apr-19 10:58N 01°17' E 103°46'0 0.0
2018-Apr-19 10:28N 01°17' E 103°46'0 0.0
2018-Apr-19 09:58N 01°17' E 103°46'0 0.0
2018-Apr-19 09:28N 01°17' E 103°46'0 0.0
2018-Apr-19 08:58N 01°17' E 103°46'0 0.0
2018-Apr-19 08:28N 01°17' E 103°46'0 0.0
2018-Apr-19 07:58N 01°17' E 103°46'0 0.0
2018-Apr-19 07:28N 01°17' E 103°46'0 0.0
2018-Apr-19 06:59N 01°17' E 103°46'0 0.0
2018-Apr-19 06:28N 01°17' E 103°46'0 0.0
2018-Apr-19 05:58N 01°17' E 103°46'0 0.0
2018-Apr-19 05:25N 01°17' E 103°46'0 0.0
2018-Apr-19 04:58N 01°17' E 103°46'0 0.0
2018-Apr-19 04:28N 01°17' E 103°46'0 0.0
2018-Apr-19 03:58N 01°17' E 103°46'0 0.0
2018-Apr-19 03:28N 01°17' E 103°46'0 0.0
2018-Apr-19 02:58N 01°17' E 103°46'0 0.0
2018-Apr-19 02:28N 01°17' E 103°46'0 0.0
2018-Apr-19 01:58N 01°17' E 103°46'0 0.0
2018-Apr-19 01:25N 01°17' E 103°46'0 0.0
2018-Apr-19 00:55N 01°17' E 103°46'0 0.0
2018-Apr-19 00:28N 01°17' E 103°46'0 0.0
2018-Apr-18 23:58N 01°17' E 103°46'0 0.0
2018-Apr-18 23:28N 01°17' E 103°46'0 0.4
2018-Apr-18 23:00N 01°17' E 103°46'1 2.5
2018-Apr-18 22:30N 01°17' E 103°45'4 8.2
2018-Apr-18 22:00N 01°14' E 103°47'610.7
2018-Apr-18 21:29N 01°14' E 103°53'2 5.1
2018-Apr-18 21:00N 01°14' E 103°55'610.9
2018-Apr-18 20:30N 01°16' E 104°01'  
2018-Apr-13 06:51S 06°44' E 112°41'613.5
2018-Apr-13 06:25S 06°48' E 112°45'511.9
2018-Apr-13 05:57S 06°54' E 112°44'817.3
2018-Apr-13 05:30S 07°01' E 112°41'916.3
2018-Apr-13 04:58S 07°09' E 112°40'3 3.4
2018-Apr-13 03:58S 07°12' E 112°42'0 0.0
2018-Apr-13 01:46S 07°12' E 112°42'0 0.0
2018-Apr-12 22:49S 07°12' E 112°42'0 0.0
2018-Apr-12 16:28S 07°12' E 112°42'0 0.0
2018-Apr-12 15:58S 07°12' E 112°42'0 0.0
2018-Apr-12 10:54S 07°12' E 112°42'0 0.0
2018-Apr-12 09:27S 07°12' E 112°42'0 0.1
2018-Apr-12 08:58S 07°12' E 112°43'0 0.9
2018-Apr-12 08:30S 07°12' E 112°42'4 6.9
2018-Apr-12 07:58S 07°09' E 112°40'713.4
2018-Apr-12 07:29S 07°02' E 112°40'714.1
2018-Apr-12 07:00S 06°56' E 112°43'611.5
2018-Apr-12 06:30S 06°51' E 112°44'0 0.2
2018-Apr-12 06:00S 06°51' E 112°44'3 5.9
2018-Apr-12 05:27S 06°49' E 112°47'0 0.5
2018-Apr-12 04:22S 06°49' E 112°47'0 0.0
2018-Apr-12 02:25S 06°49' E 112°47'2 3.9
2018-Apr-12 01:53S 06°50' E 112°45'4 9.7
2018-Apr-12 01:29S 06°46' E 112°45'711.9
2018-Apr-12 00:53S 06°43' E 112°38'512.2
2018-Apr-12 00:27S 06°42' E 112°33'  
Track history (hours):
 
Tides and Currents Weather Stations Pressure Air Temp Water Temp Dewpoint Dewpoint Depression Visibility Wind Speed Wind Dir Waves Ship Positions

Manila Express

Last reported at 2018-Apr-20 23:08 UTC. Time now 2018-Apr-22 22:07 UTC.
Position N 01°14' E 104°03'.

Length 260 m; draft 10.2 m.

Type: Cargo ship. MMSI: 477830800.

Date/timePositionNaut miles runAvg speedWind from/ knotsBaromVisibWave heightAir tempDewpointWater temp
2018-Apr-20 23:08N 01°14' E 104°03'214.4
2018-Apr-20 22:59N 01°14' E 104°00'713.9
2018-Apr-20 22:30N 01°12' E 103°54'814.9
2018-Apr-20 22:00N 01°09' E 103°47'714.2
2018-Apr-20 21:30N 01°04' E 103°42'713.0
2018-Apr-20 21:00N 01°05' E 103°35'613.1
2018-Apr-20 20:30N 01°09' E 103°31'612.0
2018-Apr-20 20:00N 01°15' E 103°32'611.5
2018-Apr-20 19:30N 01°21' E 103°33'1 1.4
2018-Apr-20 18:59N 01°22' E 103°33'0 0.0
2018-Apr-20 18:26N 01°22' E 103°33'0 0.0
2018-Apr-20 17:56N 01°22' E 103°33'0 0.0
2018-Apr-20 17:29N 01°22' E 103°33'0 0.0
2018-Apr-20 16:53N 01°22' E 103°33'0 0.0
2018-Apr-20 15:41N 01°22' E 103°33'0 0.0
2018-Apr-20 15:20N 01°22' E 103°33'0 0.0
2018-Apr-20 14:59N 01°22' E 103°33'0 0.0
2018-Apr-20 14:26N 01°22' E 103°33'0 0.0
2018-Apr-20 13:59N 01°22' E 103°33'0 0.0
2018-Apr-20 12:50N 01°22' E 103°33'0 0.0
2018-Apr-20 11:14N 01°22' E 103°33'0 0.2
2018-Apr-20 10:56N 01°22' E 103°33'0 0.0
2018-Apr-20 10:26N 01°22' E 103°33'0 0.0
2018-Apr-20 07:31N 01°22' E 103°33'0 0.0
2018-Apr-20 07:01N 01°22' E 103°33'0 0.0
2018-Apr-20 06:46N 01°22' E 103°33'0 0.0
2018-Apr-20 06:13N 01°22' E 103°33'0 0.0
2018-Apr-20 05:58N 01°22' E 103°33'0 0.1
2018-Apr-20 05:22N 01°22' E 103°33'0 0.1
2018-Apr-20 04:55N 01°22' E 103°33'0 0.0
2018-Apr-20 04:25N 01°22' E 103°33'0 0.0
2018-Apr-20 03:55N 01°22' E 103°33'0 0.0
2018-Apr-20 03:28N 01°22' E 103°33'0 0.0
2018-Apr-20 02:58N 01°22' E 103°33'0 0.0
2018-Apr-20 02:19N 01°22' E 103°33'0 0.0
2018-Apr-20 01:58N 01°22' E 103°33'0 0.0
2018-Apr-20 01:28N 01°22' E 103°33'0 0.0
2018-Apr-20 00:40N 01°22' E 103°33'0 0.1
2018-Apr-20 00:13N 01°22' E 103°33'0 0.2
2018-Apr-19 23:58N 01°22' E 103°33'0 0.0
2018-Apr-19 23:29N 01°22' E 103°33'5 3.5
2018-Apr-19 22:10N 01°17' E 103°33'213.7
2018-Apr-19 22:00N 01°15' E 103°32'3 6.3
2018-Apr-19 21:30N 01°15' E 103°29'1 1.9
2018-Apr-19 21:00N 01°15' E 103°28'1 1.7
2018-Apr-19 20:28N 01°14' E 103°29'4 7.9
2018-Apr-19 19:59N 01°13' E 103°32'510.8
2018-Apr-19 19:29N 01°12' E 103°37'3 6.5
2018-Apr-19 19:00N 01°13' E 103°40'611.3
2018-Apr-19 18:30N 01°16' E 103°45'1 2.7
2018-Apr-19 17:58N 01°17' E 103°46'0 0.0
2018-Apr-19 17:25N 01°17' E 103°46'0 0.0
2018-Apr-19 16:58N 01°17' E 103°46'0 0.0
2018-Apr-19 16:28N 01°17' E 103°46'0 0.0
2018-Apr-19 15:58N 01°17' E 103°46'0 0.0
2018-Apr-19 15:28N 01°17' E 103°46'0 0.0
2018-Apr-19 14:58N 01°17' E 103°46'0 0.0
2018-Apr-19 14:28N 01°17' E 103°46'0 0.0
2018-Apr-19 13:58N 01°17' E 103°46'0 0.0
2018-Apr-19 13:28N 01°17' E 103°46'0 0.0
2018-Apr-19 12:58N 01°17' E 103°46'0 0.0
2018-Apr-19 12:28N 01°17' E 103°46'0 0.0
2018-Apr-19 11:58N 01°17' E 103°46'0 0.0
2018-Apr-19 11:28N 01°17' E 103°46'0 0.0
2018-Apr-19 10:58N 01°17' E 103°46'0 0.0
2018-Apr-19 10:28N 01°17' E 103°46'0 0.0
2018-Apr-19 09:58N 01°17' E 103°46'0 0.0
2018-Apr-19 09:28N 01°17' E 103°46'0 0.0
2018-Apr-19 08:58N 01°17' E 103°46'0 0.0
2018-Apr-19 08:28N 01°17' E 103°46'0 0.0
2018-Apr-19 07:58N 01°17' E 103°46'0 0.0
2018-Apr-19 07:28N 01°17' E 103°46'0 0.0
2018-Apr-19 06:59N 01°17' E 103°46'0 0.0
2018-Apr-19 06:28N 01°17' E 103°46'0 0.0
2018-Apr-19 05:58N 01°17' E 103°46'0 0.0
2018-Apr-19 05:25N 01°17' E 103°46'0 0.0
2018-Apr-19 04:58N 01°17' E 103°46'0 0.0
2018-Apr-19 04:28N 01°17' E 103°46'0 0.0
2018-Apr-19 03:58N 01°17' E 103°46'0 0.0
2018-Apr-19 03:28N 01°17' E 103°46'0 0.0
2018-Apr-19 02:58N 01°17' E 103°46'0 0.0
2018-Apr-19 02:28N 01°17' E 103°46'0 0.0
2018-Apr-19 01:58N 01°17' E 103°46'0 0.0
2018-Apr-19 01:25N 01°17' E 103°46'0 0.0
2018-Apr-19 00:55N 01°17' E 103°46'0 0.0
2018-Apr-19 00:28N 01°17' E 103°46'0 0.0
2018-Apr-18 23:58N 01°17' E 103°46'0 0.0
2018-Apr-18 23:28N 01°17' E 103°46'0 0.4
2018-Apr-18 23:00N 01°17' E 103°46'1 2.5
2018-Apr-18 22:30N 01°17' E 103°45'4 8.2
2018-Apr-18 22:00N 01°14' E 103°47'610.7
2018-Apr-18 21:29N 01°14' E 103°53'2 5.1
2018-Apr-18 21:00N 01°14' E 103°55'610.9
2018-Apr-18 20:30N 01°16' E 104°01'  
2018-Apr-13 06:51S 06°44' E 112°41'613.5
2018-Apr-13 06:25S 06°48' E 112°45'511.9
2018-Apr-13 05:57S 06°54' E 112°44'817.3
2018-Apr-13 05:30S 07°01' E 112°41'916.3
2018-Apr-13 04:58S 07°09' E 112°40'3 3.4
2018-Apr-13 03:58S 07°12' E 112°42'0 0.0
2018-Apr-13 01:46S 07°12' E 112°42'0 0.0
2018-Apr-12 22:49S 07°12' E 112°42'0 0.0
2018-Apr-12 16:28S 07°12' E 112°42'0 0.0
2018-Apr-12 15:58S 07°12' E 112°42'0 0.0
2018-Apr-12 10:54S 07°12' E 112°42'0 0.0
2018-Apr-12 09:27S 07°12' E 112°42'0 0.1
2018-Apr-12 08:58S 07°12' E 112°43'0 0.9
2018-Apr-12 08:30S 07°12' E 112°42'4 6.9
2018-Apr-12 07:58S 07°09' E 112°40'713.4
2018-Apr-12 07:29S 07°02' E 112°40'714.1
2018-Apr-12 07:00S 06°56' E 112°43'611.5
2018-Apr-12 06:30S 06°51' E 112°44'0 0.2
2018-Apr-12 06:00S 06°51' E 112°44'3 5.9
2018-Apr-12 05:27S 06°49' E 112°47'0 0.5
2018-Apr-12 04:22S 06°49' E 112°47'0 0.0
2018-Apr-12 02:25S 06°49' E 112°47'2 3.9
2018-Apr-12 01:53S 06°50' E 112°45'4 9.7
2018-Apr-12 01:29S 06°46' E 112°45'711.9
2018-Apr-12 00:53S 06°43' E 112°38'512.2
2018-Apr-12 00:27S 06°42' E 112°33'  

Dump ship's entire track history